sensor_id;sensor_type;location;lat;lon;timestamp;pressure;altitude;pressure_sealevel;temperature;humidity
51333;BME280;37417;48.118;11.734;2022-07-12T00:00:18;96042.25;;;15.13;100.00
51333;BME280;37417;48.118;11.734;2022-07-12T00:03:04;96044.25;;;15.11;100.00
51333;BME280;37417;48.118;11.734;2022-07-12T00:05:50;96034.16;;;15.15;100.00
51333;BME280;37417;48.118;11.734;2022-07-12T00:08:36;96037.94;;;15.19;100.00
51333;BME280;37417;48.118;11.734;2022-07-12T00:11:23;96041.63;;;15.11;100.00
51333;BME280;37417;48.118;11.734;2022-07-12T00:14:09;96044.69;;;15.08;100.00
51333;BME280;37417;48.118;11.734;2022-07-12T00:16:57;96040.28;;;15.02;100.00
51333;BME280;37417;48.118;11.734;2022-07-12T00:19:43;96041.91;;;14.97;100.00
51333;BME280;37417;48.118;11.734;2022-07-12T00:22:28;96036.47;;;14.92;100.00
51333;BME280;37417;48.118;11.734;2022-07-12T00:25:14;96045.38;;;14.84;100.00
51333;BME280;37417;48.118;11.734;2022-07-12T00:28:00;96038.31;;;14.78;100.00
51333;BME280;37417;48.118;11.734;2022-07-12T00:30:46;96040.19;;;14.64;100.00
51333;BME280;37417;48.118;11.734;2022-07-12T00:33:31;96036.78;;;14.50;100.00
51333;BME280;37417;48.118;11.734;2022-07-12T00:36:17;96039.56;;;14.42;100.00
51333;BME280;37417;48.118;11.734;2022-07-12T00:39:03;96043.66;;;14.31;100.00
51333;BME280;37417;48.118;11.734;2022-07-12T00:41:49;96042.63;;;14.26;100.00
51333;BME280;37417;48.118;11.734;2022-07-12T00:44:35;96045.66;;;14.23;100.00
51333;BME280;37417;48.118;11.734;2022-07-12T00:47:43;96042.66;;;14.13;100.00
51333;BME280;37417;48.118;11.734;2022-07-12T00:50:30;96051.13;;;14.08;100.00
51333;BME280;37417;48.118;11.734;2022-07-12T00:53:15;96046.47;;;14.10;100.00
51333;BME280;37417;48.118;11.734;2022-07-12T00:56:03;96050.53;;;14.19;100.00
51333;BME280;37417;48.118;11.734;2022-07-12T00:58:50;96050.09;;;14.29;100.00
51333;BME280;37417;48.118;11.734;2022-07-12T01:01:36;96049.09;;;14.36;100.00
51333;BME280;37417;48.118;11.734;2022-07-12T01:04:24;96049.28;;;14.42;100.00
51333;BME280;37417;48.118;11.734;2022-07-12T01:07:09;96043.22;;;14.41;100.00
51333;BME280;37417;48.118;11.734;2022-07-12T01:09:55;96047.28;;;14.37;100.00
51333;BME280;37417;48.118;11.734;2022-07-12T01:12:41;96042.22;;;14.35;100.00
51333;BME280;37417;48.118;11.734;2022-07-12T01:15:28;96045.47;;;14.31;100.00
51333;BME280;37417;48.118;11.734;2022-07-12T01:18:16;96037.59;;;14.31;100.00
51333;BME280;37417;48.118;11.734;2022-07-12T01:21:03;96044.66;;;14.30;100.00
51333;BME280;37417;48.118;11.734;2022-07-12T01:23:50;96033.97;;;14.32;100.00
51333;BME280;37417;48.118;11.734;2022-07-12T01:26:37;96045.06;;;14.27;100.00
51333;BME280;37417;48.118;11.734;2022-07-12T01:29:22;96042.44;;;14.21;100.00
51333;BME280;37417;48.118;11.734;2022-07-12T01:32:09;96047.47;;;14.16;100.00
51333;BME280;37417;48.118;11.734;2022-07-12T01:35:10;96038.81;;;14.08;100.00
51333;BME280;37417;48.118;11.734;2022-07-12T01:37:56;96041.84;;;14.05;100.00
51333;BME280;37417;48.118;11.734;2022-07-12T01:40:41;96046.88;;;14.07;100.00
51333;BME280;37417;48.118;11.734;2022-07-12T01:43:28;96050.53;;;14.06;100.00
51333;BME280;37417;48.118;11.734;2022-07-12T01:46:13;96045.88;;;14.08;100.00
51333;BME280;37417;48.118;11.734;2022-07-12T01:48:59;96043.66;;;13.98;100.00
51333;BME280;37417;48.118;11.734;2022-07-12T01:51:46;96044.84;;;13.96;100.00
51333;BME280;37417;48.118;11.734;2022-07-12T01:54:32;96037.78;;;13.90;100.00
51333;BME280;37417;48.118;11.734;2022-07-12T01:57:19;96039.22;;;13.86;100.00
51333;BME280;37417;48.118;11.734;2022-07-12T02:00:05;96040.84;;;13.80;100.00
51333;BME280;37417;48.118;11.734;2022-07-12T02:02:52;96037.19;;;13.68;100.00
51333;BME280;37417;48.118;11.734;2022-07-12T02:05:37;96045.63;;;13.57;100.00
51333;BME280;37417;48.118;11.734;2022-07-12T02:08:23;96043.81;;;13.50;100.00
51333;BME280;37417;48.118;11.734;2022-07-12T02:11:09;96040.97;;;13.45;100.00
51333;BME280;37417;48.118;11.734;2022-07-12T02:13:54;96041.38;;;13.42;100.00
51333;BME280;37417;48.118;11.734;2022-07-12T02:16:41;96045.78;;;13.28;100.00
51333;BME280;37417;48.118;11.734;2022-07-12T02:19:27;96053.16;;;13.18;100.00
51333;BME280;37417;48.118;11.734;2022-07-12T02:22:12;96043.44;;;13.06;100.00
51333;BME280;37417;48.118;11.734;2022-07-12T02:24:58;96046.44;;;12.96;100.00
51333;BME280;37417;48.118;11.734;2022-07-12T02:27:44;96041.16;;;12.89;100.00
51333;BME280;37417;48.118;11.734;2022-07-12T02:30:29;96036.31;;;12.86;100.00
51333;BME280;37417;48.118;11.734;2022-07-12T02:33:15;96039.69;;;12.80;100.00
51333;BME280;37417;48.118;11.734;2022-07-12T02:36:01;96040.47;;;12.74;100.00
51333;BME280;37417;48.118;11.734;2022-07-12T02:38:48;96040.88;;;12.71;100.00
51333;BME280;37417;48.118;11.734;2022-07-12T02:41:33;96038.81;;;12.60;100.00
51333;BME280;37417;48.118;11.734;2022-07-12T02:44:19;96039.53;;;12.47;100.00
51333;BME280;37417;48.118;11.734;2022-07-12T02:47:05;96045.34;;;12.42;100.00
51333;BME280;37417;48.118;11.734;2022-07-12T02:49:51;96047.53;;;12.39;100.00
51333;BME280;37417;48.118;11.734;2022-07-12T02:52:36;96041.47;;;12.32;100.00
51333;BME280;37417;48.118;11.734;2022-07-12T02:55:22;96044.16;;;12.17;100.00
51333;BME280;37417;48.118;11.734;2022-07-12T02:58:08;96045.06;;;12.03;100.00
51333;BME280;37417;48.118;11.734;2022-07-12T03:00:54;96049.81;;;11.92;100.00
51333;BME280;37417;48.118;11.734;2022-07-12T03:03:39;96051.78;;;11.69;100.00
51333;BME280;37417;48.118;11.734;2022-07-12T03:06:25;96055.63;;;11.52;100.00
51333;BME280;37417;48.118;11.734;2022-07-12T03:09:11;96059.97;;;11.45;100.00
51333;BME280;37417;48.118;11.734;2022-07-12T03:11:56;96063.59;;;11.44;100.00
51333;BME280;37417;48.118;11.734;2022-07-12T03:14:42;96064.44;;;11.29;100.00
51333;BME280;37417;48.118;11.734;2022-07-12T03:17:28;96068.22;;;11.27;100.00
51333;BME280;37417;48.118;11.734;2022-07-12T03:20:13;96069.06;;;11.27;100.00
51333;BME280;37417;48.118;11.734;2022-07-12T03:23:00;96069.78;;;11.21;100.00
51333;BME280;37417;48.118;11.734;2022-07-12T03:25:45;96065.53;;;11.20;100.00
51333;BME280;37417;48.118;11.734;2022-07-12T03:28:31;96069.78;;;11.21;100.00
51333;BME280;37417;48.118;11.734;2022-07-12T03:31:17;96069.06;;;11.27;100.00
51333;BME280;37417;48.118;11.734;2022-07-12T03:34:02;96068.31;;;11.33;100.00
51333;BME280;37417;48.118;11.734;2022-07-12T03:36:48;96072.78;;;11.39;100.00
51333;BME280;37417;48.118;11.734;2022-07-12T03:39:34;96077.47;;;11.44;100.00
51333;BME280;37417;48.118;11.734;2022-07-12T03:42:20;96071.81;;;11.41;100.00
51333;BME280;37417;48.118;11.734;2022-07-12T03:45:06;96078.19;;;11.38;100.00
51333;BME280;37417;48.118;11.734;2022-07-12T03:47:52;96083.22;;;11.39;100.00
51333;BME280;37417;48.118;11.734;2022-07-12T03:50:37;96083.75;;;11.50;100.00
51333;BME280;37417;48.118;11.734;2022-07-12T03:53:23;96081.81;;;11.58;100.00
51333;BME280;37417;48.118;11.734;2022-07-12T03:56:09;96088.81;;;11.73;100.00
51333;BME280;37417;48.118;11.734;2022-07-12T03:58:54;96084.72;;;11.85;100.00
51333;BME280;37417;48.118;11.734;2022-07-12T04:01:40;96089.09;;;11.99;100.00
51333;BME280;37417;48.118;11.734;2022-07-12T04:04:26;96103.69;;;12.15;100.00
51333;BME280;37417;48.118;11.734;2022-07-12T04:07:11;96090.31;;;12.25;100.00
51333;BME280;37417;48.118;11.734;2022-07-12T04:09:57;96096.00;;;12.35;100.00
51333;BME280;37417;48.118;11.734;2022-07-12T04:12:43;96078.97;;;12.45;100.00
51333;BME280;37417;48.118;11.734;2022-07-12T04:15:28;96089.13;;;12.62;100.00
51333;BME280;37417;48.118;11.734;2022-07-12T04:18:14;96086.41;;;12.77;100.00
51333;BME280;37417;48.118;11.734;2022-07-12T04:21:00;96086.91;;;12.93;100.00
51333;BME280;37417;48.118;11.734;2022-07-12T04:23:45;96086.97;;;13.13;100.00
51333;BME280;37417;48.118;11.734;2022-07-12T04:26:31;96085.69;;;13.31;100.00
51333;BME280;37417;48.118;11.734;2022-07-12T04:29:20;96080.91;;;13.54;100.00
51333;BME280;37417;48.118;11.734;2022-07-12T04:32:06;96076.91;;;13.78;100.00
51333;BME280;37417;48.118;11.734;2022-07-12T04:34:52;96078.38;;;14.00;100.00
51333;BME280;37417;48.118;11.734;2022-07-12T04:37:38;96076.34;;;14.16;100.00
51333;BME280;37417;48.118;11.734;2022-07-12T04:40:23;96074.53;;;14.23;100.00
51333;BME280;37417;48.118;11.734;2022-07-12T04:43:09;96077.56;;;14.26;100.00
51333;BME280;37417;48.118;11.734;2022-07-12T04:45:55;96085.63;;;14.45;100.00
51333;BME280;37417;48.118;11.734;2022-07-12T04:48:41;96074.72;;;14.54;100.00
51333;BME280;37417;48.118;11.734;2022-07-12T04:51:27;96067.47;;;14.50;100.00
51333;BME280;37417;48.118;11.734;2022-07-12T04:54:12;96065.44;;;14.45;100.00
51333;BME280;37417;48.118;11.734;2022-07-12T04:56:58;96069.88;;;14.45;100.00
51333;BME280;37417;48.118;11.734;2022-07-12T04:59:44;96076.75;;;14.39;100.00
51333;BME280;37417;48.118;11.734;2022-07-12T05:02:29;96081.56;;;14.42;100.00
51333;BME280;37417;48.118;11.734;2022-07-12T05:05:15;96082.44;;;14.49;100.00
51333;BME280;37417;48.118;11.734;2022-07-12T05:08:00;96079.97;;;14.61;100.00
51333;BME280;37417;48.118;11.734;2022-07-12T05:10:46;96084.28;;;15.07;100.00
51333;BME280;37417;48.118;11.734;2022-07-12T05:13:32;96086.63;;;15.35;100.00
51333;BME280;37417;48.118;11.734;2022-07-12T05:16:18;96086.25;;;15.69;100.00
51333;BME280;37417;48.118;11.734;2022-07-12T05:19:03;96085.84;;;15.73;100.00
51333;BME280;37417;48.118;11.734;2022-07-12T05:21:49;96084.16;;;15.85;100.00
51333;BME280;37417;48.118;11.734;2022-07-12T05:24:35;96090.06;;;16.37;100.00
51333;BME280;37417;48.118;11.734;2022-07-12T05:27:21;96090.16;;;16.67;100.00
51333;BME280;37417;48.118;11.734;2022-07-12T05:30:07;96086.41;;;17.18;100.00
51333;BME280;37417;48.118;11.734;2022-07-12T05:32:52;96089.28;;;17.65;100.00
51333;BME280;37417;48.118;11.734;2022-07-12T05:35:38;96088.13;;;18.56;100.00
51333;BME280;37417;48.118;11.734;2022-07-12T05:38:24;96091.00;;;19.53;100.00
51333;BME280;37417;48.118;11.734;2022-07-12T05:41:10;96092.13;;;20.31;100.00
51333;BME280;37417;48.118;11.734;2022-07-12T05:43:56;96101.34;;;20.79;100.00
51333;BME280;37417;48.118;11.734;2022-07-12T05:46:42;96096.09;;;21.23;99.93
51333;BME280;37417;48.118;11.734;2022-07-12T05:49:28;96096.09;;;21.23;99.51
51333;BME280;37417;48.118;11.734;2022-07-12T05:52:14;96099.91;;;22.25;88.28
51333;BME280;37417;48.118;11.734;2022-07-12T05:55:18;96098.94;;;21.82;88.89
51333;BME280;37417;48.118;11.734;2022-07-12T05:58:03;96103.22;;;23.84;79.74
51333;BME280;37417;48.118;11.734;2022-07-12T06:00:49;96105.38;;;23.24;77.97
51333;BME280;37417;48.118;11.734;2022-07-12T06:03:35;96115.75;;;25.31;66.58
51333;BME280;37417;48.118;11.734;2022-07-12T06:06:20;96120.13;;;25.72;61.63
51333;BME280;37417;48.118;11.734;2022-07-12T06:09:06;96121.06;;;26.45;59.47
51333;BME280;37417;48.118;11.734;2022-07-12T06:11:52;96129.28;;;26.83;56.32
51333;BME280;37417;48.118;11.734;2022-07-12T06:14:37;96128.69;;;27.68;52.27
51333;BME280;37417;48.118;11.734;2022-07-12T06:17:23;96132.06;;;27.79;50.31
51333;BME280;37417;48.118;11.734;2022-07-12T06:20:09;96127.31;;;25.81;51.44
51333;BME280;37417;48.118;11.734;2022-07-12T06:22:56;96129.91;;;21.98;69.47
51333;BME280;37417;48.118;11.734;2022-07-12T06:25:42;96121.81;;;19.88;87.57
51333;BME280;37417;48.118;11.734;2022-07-12T06:28:28;96131.72;;;20.88;91.77
51333;BME280;37417;48.118;11.734;2022-07-12T06:31:13;96131.25;;;24.12;70.64
51333;BME280;37417;48.118;11.734;2022-07-12T06:33:59;96129.75;;;21.83;75.62
51333;BME280;37417;48.118;11.734;2022-07-12T06:36:45;96141.09;;;20.96;82.54
51333;BME280;37417;48.118;11.734;2022-07-12T06:39:30;96128.00;;;23.95;67.06
51333;BME280;37417;48.118;11.734;2022-07-12T06:42:16;96128.13;;;24.61;65.78
51333;BME280;37417;48.118;11.734;2022-07-12T06:45:02;96129.94;;;26.41;53.97
51333;BME280;37417;48.118;11.734;2022-07-12T06:47:48;96128.16;;;28.09;47.95
51333;BME280;37417;48.118;11.734;2022-07-12T06:50:34;96134.19;;;28.39;45.81
51333;BME280;37417;48.118;11.734;2022-07-12T06:53:20;96134.94;;;22.54;57.80
51333;BME280;37417;48.118;11.734;2022-07-12T06:56:05;96126.88;;;25.59;57.16
51333;BME280;37417;48.118;11.734;2022-07-12T06:58:51;96128.44;;;27.70;47.91
51333;BME280;37417;48.118;11.734;2022-07-12T07:01:37;96121.56;;;26.82;47.87
51333;BME280;37417;48.118;11.734;2022-07-12T07:04:23;96115.78;;;28.32;43.88
51333;BME280;37417;48.118;11.734;2022-07-12T07:07:09;96115.97;;;26.05;49.88
51333;BME280;37417;48.118;11.734;2022-07-12T07:09:55;96113.94;;;26.26;49.75
51333;BME280;37417;48.118;11.734;2022-07-12T07:12:41;96126.28;;;23.01;62.39
51333;BME280;37417;48.118;11.734;2022-07-12T07:15:27;96129.94;;;22.89;66.46
51333;BME280;37417;48.118;11.734;2022-07-12T07:18:12;96126.94;;;22.81;68.12
51333;BME280;37417;48.118;11.734;2022-07-12T07:20:58;96117.38;;;25.92;55.09
51333;BME280;37417;48.118;11.734;2022-07-12T07:23:44;96134.47;;;25.11;55.12
51333;BME280;37417;48.118;11.734;2022-07-12T07:26:30;96120.22;;;21.87;68.30
51333;BME280;37417;48.118;11.734;2022-07-12T07:29:16;96123.19;;;26.49;54.14
51333;BME280;37417;48.118;11.734;2022-07-12T07:32:20;96127.94;;;27.15;52.43
51333;BME280;37417;48.118;11.734;2022-07-12T07:35:06;96134.97;;;29.37;44.48
51333;BME280;37417;48.118;11.734;2022-07-12T07:37:52;96133.13;;;25.99;49.34
51333;BME280;37417;48.118;11.734;2022-07-12T07:40:38;96134.56;;;22.35;62.62
51333;BME280;37417;48.118;11.734;2022-07-12T07:43:24;96130.81;;;23.05;59.80
51333;BME280;37417;48.118;11.734;2022-07-12T07:46:09;96131.94;;;21.03;69.93
51333;BME280;37417;48.118;11.734;2022-07-12T07:48:55;96127.75;;;21.46;70.22
51333;BME280;37417;48.118;11.734;2022-07-12T07:51:41;96134.13;;;22.48;68.13
51333;BME280;37417;48.118;11.734;2022-07-12T07:54:27;96136.03;;;20.27;79.98
51333;BME280;37417;48.118;11.734;2022-07-12T07:57:12;96130.56;;;22.69;65.13
51333;BME280;37417;48.118;11.734;2022-07-12T07:59:58;96137.50;;;25.74;57.90
51333;BME280;37417;48.118;11.734;2022-07-12T08:02:44;96137.44;;;24.38;57.58
51333;BME280;37417;48.118;11.734;2022-07-12T08:05:29;96130.22;;;24.18;55.23
51333;BME280;37417;48.118;11.734;2022-07-12T08:08:15;96134.75;;;28.87;45.09
51333;BME280;37417;48.118;11.734;2022-07-12T08:11:01;96135.84;;;27.97;42.59
51333;BME280;37417;48.118;11.734;2022-07-12T08:13:46;96142.44;;;30.67;38.31
51333;BME280;37417;48.118;11.734;2022-07-12T08:16:33;96131.56;;;28.52;41.00
51333;BME280;37417;48.118;11.734;2022-07-12T08:19:19;96143.56;;;24.90;48.82
51333;BME280;37417;48.118;11.734;2022-07-12T08:22:05;96131.94;;;23.14;55.16
51333;BME280;37417;48.118;11.734;2022-07-12T08:24:51;96132.44;;;21.61;60.56
51333;BME280;37417;48.118;11.734;2022-07-12T08:27:36;96132.78;;;22.83;62.87
51333;BME280;37417;48.118;11.734;2022-07-12T08:30:22;96138.50;;;23.49;56.39
51333;BME280;37417;48.118;11.734;2022-07-12T08:33:08;96136.06;;;21.33;66.81
51333;BME280;37417;48.118;11.734;2022-07-12T08:35:53;96133.72;;;22.34;65.30
51333;BME280;37417;48.118;11.734;2022-07-12T08:38:39;96147.91;;;21.08;66.75
51333;BME280;37417;48.118;11.734;2022-07-12T08:41:29;96142.59;;;23.14;60.69
51333;BME280;37417;48.118;11.734;2022-07-12T08:44:16;96137.16;;;24.85;55.49
51333;BME280;37417;48.118;11.734;2022-07-12T08:47:01;96141.31;;;28.48;46.43
51333;BME280;37417;48.118;11.734;2022-07-12T08:50:13;96148.53;;;28.67;43.36
51333;BME280;37417;48.118;11.734;2022-07-12T08:53:00;96146.34;;;26.63;46.67
51333;BME280;37417;48.118;11.734;2022-07-12T08:55:46;96154.25;;;23.08;54.21
51333;BME280;37417;48.118;11.734;2022-07-12T08:58:32;96154.09;;;21.53;61.79
51333;BME280;37417;48.118;11.734;2022-07-12T09:01:38;96162.19;;;24.18;53.49
51333;BME280;37417;48.118;11.734;2022-07-12T09:04:26;96158.25;;;25.13;47.18
51333;BME280;37417;48.118;11.734;2022-07-12T09:07:15;96155.75;;;21.81;55.31
51333;BME280;37417;48.118;11.734;2022-07-12T09:10:05;96154.13;;;23.30;54.06
51333;BME280;37417;48.118;11.734;2022-07-12T09:12:51;96156.91;;;25.95;48.22
51333;BME280;37417;48.118;11.734;2022-07-12T09:15:37;96152.16;;;28.19;42.02
51333;BME280;37417;48.118;11.734;2022-07-12T09:18:23;96161.31;;;29.35;41.45
51333;BME280;37417;48.118;11.734;2022-07-12T09:21:24;96154.81;;;24.61;45.27
51333;BME280;37417;48.118;11.734;2022-07-12T09:24:10;96157.22;;;22.42;50.07
51333;BME280;37417;48.118;11.734;2022-07-12T09:27:01;96164.16;;;21.73;56.44
51333;BME280;37417;48.118;11.734;2022-07-12T09:29:48;96158.66;;;21.35;57.33
51333;BME280;37417;48.118;11.734;2022-07-12T09:32:34;96156.00;;;21.35;57.71
51333;BME280;37417;48.118;11.734;2022-07-12T09:35:39;96163.75;;;22.30;55.53
51333;BME280;37417;48.118;11.734;2022-07-12T09:38:50;96165.78;;;21.13;57.80
51333;BME280;37417;48.118;11.734;2022-07-12T09:41:38;96166.88;;;21.34;59.98
51333;BME280;37417;48.118;11.734;2022-07-12T09:44:24;96164.75;;;20.64;63.08
51333;BME280;37417;48.118;11.734;2022-07-12T09:47:14;96166.34;;;20.48;63.72
51333;BME280;37417;48.118;11.734;2022-07-12T09:50:02;96166.34;;;20.65;64.61
51333;BME280;37417;48.118;11.734;2022-07-12T09:52:48;96167.03;;;21.93;61.18
51333;BME280;37417;48.118;11.734;2022-07-12T09:55:34;96171.53;;;23.53;54.91
51333;BME280;37417;48.118;11.734;2022-07-12T09:58:25;96171.25;;;24.27;50.02
51333;BME280;37417;48.118;11.734;2022-07-12T10:01:12;96166.72;;;23.45;52.30
51333;BME280;37417;48.118;11.734;2022-07-12T10:03:59;96172.50;;;21.81;58.67
51333;BME280;37417;48.118;11.734;2022-07-12T10:06:46;96170.06;;;21.36;60.70
51333;BME280;37417;48.118;11.734;2022-07-12T10:09:33;96175.56;;;21.95;60.11
51333;BME280;37417;48.118;11.734;2022-07-12T10:12:20;96176.94;;;21.98;58.89
51333;BME280;37417;48.118;11.734;2022-07-12T10:15:13;96176.63;;;22.43;58.69
51333;BME280;37417;48.118;11.734;2022-07-12T10:18:00;96171.84;;;24.45;51.40
51333;BME280;37417;48.118;11.734;2022-07-12T10:20:48;96175.34;;;23.62;52.98
51333;BME280;37417;48.118;11.734;2022-07-12T10:23:36;96175.84;;;25.34;51.27
51333;BME280;37417;48.118;11.734;2022-07-12T10:26:36;96178.03;;;24.86;47.15
51333;BME280;37417;48.118;11.734;2022-07-12T10:29:24;96180.41;;;22.52;53.81
51333;BME280;37417;48.118;11.734;2022-07-12T10:32:21;96174.00;;;23.12;54.51
51333;BME280;37417;48.118;11.734;2022-07-12T10:35:18;96165.34;;;22.31;53.93
51333;BME280;37417;48.118;11.734;2022-07-12T10:38:15;96171.91;;;22.01;55.95
51333;BME280;37417;48.118;11.734;2022-07-12T10:41:22;96174.16;;;22.36;55.90
51333;BME280;37417;48.118;11.734;2022-07-12T10:44:08;96175.34;;;24.86;49.33
51333;BME280;37417;48.118;11.734;2022-07-12T10:47:01;96169.91;;;26.61;44.69
51333;BME280;37417;48.118;11.734;2022-07-12T10:49:49;96173.97;;;25.04;44.86
51333;BME280;37417;48.118;11.734;2022-07-12T10:52:35;96172.00;;;22.97;51.76
51333;BME280;37417;48.118;11.734;2022-07-12T10:55:21;96174.47;;;24.29;48.77
51333;BME280;37417;48.118;11.734;2022-07-12T10:58:06;96173.22;;;24.63;48.77
51333;BME280;37417;48.118;11.734;2022-07-12T11:00:52;96175.16;;;22.89;51.06
51333;BME280;37417;48.118;11.734;2022-07-12T11:06:28;96170.00;;;24.81;46.77
51333;BME280;37417;48.118;11.734;2022-07-12T11:09:16;96172.94;;;23.13;51.75
51333;BME280;37417;48.118;11.734;2022-07-12T11:12:02;96163.44;;;23.85;51.46
51333;BME280;37417;48.118;11.734;2022-07-12T11:14:50;96174.91;;;25.69;46.46
51333;BME280;37417;48.118;11.734;2022-07-12T11:17:36;96168.13;;;26.02;44.53
51333;BME280;37417;48.118;11.734;2022-07-12T11:20:27;96162.78;;;28.81;40.27
51333;BME280;37417;48.118;11.734;2022-07-12T11:23:13;96176.38;;;29.03;38.64
51333;BME280;37417;48.118;11.734;2022-07-12T11:26:00;96167.88;;;25.14;42.97
51333;BME280;37417;48.118;11.734;2022-07-12T11:28:46;96156.84;;;24.03;46.81
51333;BME280;37417;48.118;11.734;2022-07-12T11:31:34;96170.25;;;25.20;45.53
51333;BME280;37417;48.118;11.734;2022-07-12T11:34:24;96155.19;;;26.59;43.35
51333;BME280;37417;48.118;11.734;2022-07-12T11:37:10;96153.69;;;27.11;40.72
51333;BME280;37417;48.118;11.734;2022-07-12T11:39:55;96160.13;;;25.07;42.39
51333;BME280;37417;48.118;11.734;2022-07-12T11:43:00;96145.47;;;26.73;39.79
51333;BME280;37417;48.118;11.734;2022-07-12T11:45:46;96150.81;;;27.07;40.65
51333;BME280;37417;48.118;11.734;2022-07-12T11:48:32;96155.78;;;27.19;39.90
51333;BME280;37417;48.118;11.734;2022-07-12T11:51:18;96154.94;;;27.71;37.11
51333;BME280;37417;48.118;11.734;2022-07-12T11:54:04;96142.09;;;27.44;37.56
51333;BME280;37417;48.118;11.734;2022-07-12T11:56:49;96144.72;;;25.74;40.63
51333;BME280;37417;48.118;11.734;2022-07-12T11:59:35;96157.09;;;24.01;43.96
51333;BME280;37417;48.118;11.734;2022-07-12T12:02:21;96144.31;;;25.31;43.16
51333;BME280;37417;48.118;11.734;2022-07-12T12:05:09;96143.81;;;24.27;45.72
51333;BME280;37417;48.118;11.734;2022-07-12T12:07:55;96144.41;;;24.70;43.95
51333;BME280;37417;48.118;11.734;2022-07-12T12:10:43;96141.44;;;25.12;44.18
51333;BME280;37417;48.118;11.734;2022-07-12T12:13:37;96142.00;;;24.48;43.55
51333;BME280;37417;48.118;11.734;2022-07-12T12:16:22;96138.75;;;24.30;43.12
51333;BME280;37417;48.118;11.734;2022-07-12T12:19:11;96134.38;;;25.57;41.89
51333;BME280;37417;48.118;11.734;2022-07-12T12:21:57;96133.94;;;27.02;38.82
51333;BME280;37417;48.118;11.734;2022-07-12T12:24:57;96132.63;;;26.31;40.28
51333;BME280;37417;48.118;11.734;2022-07-12T12:30:33;96143.69;;;29.15;35.58
51333;BME280;37417;48.118;11.734;2022-07-12T12:33:36;96144.06;;;27.05;37.76
51333;BME280;37417;48.118;11.734;2022-07-12T12:36:25;96139.72;;;26.11;37.96
51333;BME280;37417;48.118;11.734;2022-07-12T12:39:11;96141.00;;;30.11;33.63
51333;BME280;37417;48.118;11.734;2022-07-12T12:41:56;96143.97;;;27.68;35.93
51333;BME280;37417;48.118;11.734;2022-07-12T12:44:42;96137.91;;;30.04;34.26
51333;BME280;37417;48.118;11.734;2022-07-12T12:47:28;96127.44;;;30.16;33.55
51333;BME280;37417;48.118;11.734;2022-07-12T12:50:35;96134.84;;;25.74;37.39
51333;BME280;37417;48.118;11.734;2022-07-12T12:53:23;96136.34;;;25.21;40.93
51333;BME280;37417;48.118;11.734;2022-07-12T12:56:11;96122.06;;;25.56;40.29
51333;BME280;37417;48.118;11.734;2022-07-12T12:58:57;96128.88;;;26.71;38.52
51333;BME280;37417;48.118;11.734;2022-07-12T13:01:43;96123.72;;;26.45;38.02
51333;BME280;37417;48.118;11.734;2022-07-12T13:04:33;96126.50;;;30.07;31.79
51333;BME280;37417;48.118;11.734;2022-07-12T13:07:19;96121.97;;;30.66;31.80
51333;BME280;37417;48.118;11.734;2022-07-12T13:10:05;96124.97;;;31.67;28.52
51333;BME280;37417;48.118;11.734;2022-07-12T13:12:51;96130.72;;;26.36;36.18
51333;BME280;37417;48.118;11.734;2022-07-12T13:15:37;96119.06;;;26.90;35.53
51333;BME280;37417;48.118;11.734;2022-07-12T13:18:23;96122.94;;;27.99;35.46
51333;BME280;37417;48.118;11.734;2022-07-12T13:21:09;96119.06;;;31.96;31.08
51333;BME280;37417;48.118;11.734;2022-07-12T13:23:54;96117.66;;;35.08;25.91
51333;BME280;37417;48.118;11.734;2022-07-12T13:26:40;96128.13;;;34.01;26.53
51333;BME280;37417;48.118;11.734;2022-07-12T13:29:26;96130.31;;;30.79;30.22
51333;BME280;37417;48.118;11.734;2022-07-12T13:32:12;96127.31;;;33.41;27.51
51333;BME280;37417;48.118;11.734;2022-07-12T13:34:57;96133.69;;;32.73;28.22
51333;BME280;37417;48.118;11.734;2022-07-12T13:37:45;96135.06;;;32.01;28.33
51333;BME280;37417;48.118;11.734;2022-07-12T13:40:30;96129.88;;;30.27;29.83
51333;BME280;37417;48.118;11.734;2022-07-12T13:43:16;96132.91;;;29.01;32.41
51333;BME280;37417;48.118;11.734;2022-07-12T13:46:02;96128.56;;;27.54;35.45
51333;BME280;37417;48.118;11.734;2022-07-12T13:48:48;96134.38;;;28.61;34.79
51333;BME280;37417;48.118;11.734;2022-07-12T13:51:33;96131.59;;;28.15;32.54
51333;BME280;37417;48.118;11.734;2022-07-12T13:54:19;96130.94;;;28.42;31.76
51333;BME280;37417;48.118;11.734;2022-07-12T13:57:05;96138.28;;;32.29;28.74
51333;BME280;37417;48.118;11.734;2022-07-12T13:59:51;96138.91;;;33.51;25.73
51333;BME280;37417;48.118;11.734;2022-07-12T14:02:39;96134.56;;;29.44;30.66
51333;BME280;37417;48.118;11.734;2022-07-12T14:05:26;96136.31;;;30.03;29.73
51333;BME280;37417;48.118;11.734;2022-07-12T14:08:12;96146.69;;;33.82;27.72
51333;BME280;37417;48.118;11.734;2022-07-12T14:10:58;96139.41;;;35.44;25.87
51333;BME280;37417;48.118;11.734;2022-07-12T14:13:43;96149.34;;;33.61;26.26
51333;BME280;37417;48.118;11.734;2022-07-12T14:16:29;96143.22;;;33.34;28.72
51333;BME280;37417;48.118;11.734;2022-07-12T14:19:15;96135.09;;;32.79;28.59
51333;BME280;37417;48.118;11.734;2022-07-12T14:22:01;96134.28;;;32.96;28.06
51333;BME280;37417;48.118;11.734;2022-07-12T14:24:47;96146.16;;;34.39;26.08
51333;BME280;37417;48.118;11.734;2022-07-12T14:27:34;96143.91;;;33.70;26.02
51333;BME280;37417;48.118;11.734;2022-07-12T14:30:20;96137.38;;;32.33;27.76
51333;BME280;37417;48.118;11.734;2022-07-12T14:33:06;96143.50;;;32.77;26.76